createdAt,value
2023-05-18T00:00:46.742Z,1.67
2023-05-18T00:03:15.533Z,2.13
2023-05-18T00:05:43.878Z,1.80
2023-05-18T00:08:13.042Z,1.87
2023-05-18T00:10:40.954Z,1.30
2023-05-18T00:13:08.998Z,1.57
2023-05-18T00:15:36.815Z,2.13
2023-05-18T00:18:04.987Z,2.00
2023-05-18T00:20:34.704Z,2.03
2023-05-18T00:23:02.579Z,2.23
2023-05-18T00:25:31.912Z,2.20
2023-05-18T00:27:59.739Z,1.93
2023-05-18T00:30:27.633Z,2.33
2023-05-18T00:32:55.450Z,2.23
2023-05-18T00:35:23.326Z,2.37
2023-05-18T00:37:51.072Z,2.40
2023-05-18T00:40:19.151Z,2.40
2023-05-18T00:42:48.453Z,2.77
2023-05-18T00:45:16.240Z,2.53
2023-05-18T00:47:44.302Z,3.23
2023-05-18T00:50:12.515Z,3.20
2023-05-18T00:52:40.729Z,3.60
2023-05-18T00:55:09.676Z,3.87
2023-05-18T00:57:38.310Z,3.43
2023-05-18T01:00:10.928Z,4.47
2023-05-18T01:02:43.212Z,4.67
2023-05-18T01:05:12.568Z,4.53
2023-05-18T01:07:42.625Z,4.30
2023-05-18T01:10:12.321Z,4.20
2023-05-18T01:12:46.670Z,4.67
2023-05-18T01:15:19.393Z,5.53
2023-05-18T01:18:00.795Z,5.13
2023-05-18T01:20:37.843Z,4.93
2023-05-18T01:23:42.559Z,4.63
2023-05-18T01:26:29.949Z,5.10
2023-05-18T01:29:00.470Z,5.00
2023-05-18T01:31:28.930Z,4.07
2023-05-18T01:33:56.852Z,4.50
2023-05-18T01:36:24.559Z,4.03
2023-05-18T01:38:53.015Z,5.00
2023-05-18T01:41:24.317Z,4.00
2023-05-18T01:43:57.453Z,4.53
2023-05-18T01:46:39.663Z,3.50
2023-05-18T01:49:12.631Z,3.37
2023-05-18T01:51:45.461Z,3.47
2023-05-18T01:54:17.158Z,3.90
2023-05-18T01:56:48.323Z,3.13
2023-05-18T01:59:18.111Z,3.13
2023-05-18T02:01:46.030Z,4.07
2023-05-18T02:04:13.916Z,3.40
2023-05-18T02:06:41.751Z,3.80
2023-05-18T02:09:10.162Z,4.33
2023-05-18T02:11:38.186Z,3.93
2023-05-18T02:14:07.568Z,3.57
2023-05-18T02:16:35.346Z,3.47
2023-05-18T02:19:03.504Z,3.83
2023-05-18T02:21:31.573Z,4.23
2023-05-18T02:23:59.346Z,3.87
2023-05-18T02:26:27.403Z,3.60
2023-05-18T02:28:55.103Z,3.47
2023-05-18T02:31:24.279Z,3.23
2023-05-18T02:33:52.006Z,3.60
2023-05-18T02:36:22.506Z,3.07
2023-05-18T02:38:50.609Z,3.37
2023-05-18T02:41:18.459Z,3.17
2023-05-18T02:43:46.247Z,3.37
2023-05-18T02:46:14.187Z,3.17
2023-05-18T02:48:46.059Z,3.67
2023-05-18T02:51:14.068Z,3.40
2023-05-18T02:53:44.041Z,3.23
2023-05-18T02:56:12.351Z,3.67
2023-05-18T02:58:40.393Z,3.10
2023-05-18T03:01:09.101Z,3.17
2023-05-18T03:03:37.011Z,3.40
2023-05-18T03:06:08.270Z,3.60
2023-05-18T03:08:37.293Z,3.73
2023-05-18T03:11:05.529Z,3.50
2023-05-18T03:13:33.241Z,3.83
2023-05-18T03:16:01.008Z,3.63
2023-05-18T03:18:28.819Z,3.60
2023-05-18T03:21:02.045Z,3.70
2023-05-18T03:23:31.720Z,3.23
2023-05-18T03:25:59.510Z,3.40
2023-05-18T03:28:27.419Z,3.63
2023-05-18T03:30:55.630Z,3.27
2023-05-18T03:33:23.334Z,3.87
2023-05-18T03:35:52.320Z,3.40
2023-05-18T03:38:20.161Z,3.33
2023-05-18T03:40:50.216Z,3.70
2023-05-18T03:43:19.086Z,3.60
2023-05-18T03:45:46.864Z,3.20
2023-05-18T03:48:14.679Z,3.00
2023-05-18T03:50:42.501Z,3.33
2023-05-18T03:53:10.463Z,3.07
2023-05-18T03:55:41.890Z,3.63
2023-05-18T03:58:11.403Z,3.30
2023-05-18T04:00:39.828Z,3.10
2023-05-18T04:03:08.055Z,3.07
2023-05-18T04:05:35.855Z,3.40
2023-05-18T04:08:03.770Z,3.70
2023-05-18T04:10:31.934Z,3.20
2023-05-18T04:12:59.738Z,3.70
2023-05-18T04:15:29.150Z,3.77
2023-05-18T04:17:57.586Z,4.27
2023-05-18T04:20:28.632Z,3.70
2023-05-18T04:22:57.440Z,3.87
2023-05-18T04:25:28.066Z,3.97
2023-05-18T04:27:56.586Z,3.50
2023-05-18T04:30:24.898Z,4.10
2023-05-18T04:32:54.907Z,4.07
2023-05-18T04:35:23.019Z,3.50
2023-05-18T04:37:50.810Z,4.00
2023-05-18T04:40:19.021Z,4.10
2023-05-18T04:42:47.563Z,4.37
2023-05-18T04:45:17.971Z,3.63
2023-05-18T04:47:47.162Z,4.00
2023-05-18T04:53:04.442Z,3.80
2023-05-18T04:55:33.512Z,3.97
2023-05-18T04:58:01.911Z,3.90
2023-05-18T05:00:30.762Z,3.93
2023-05-18T05:02:59.863Z,3.33
2023-05-18T05:05:28.107Z,3.30
2023-05-18T05:07:56.162Z,4.00
2023-05-18T05:10:25.549Z,3.27
2023-05-18T05:12:53.641Z,3.07
2023-05-18T05:15:21.423Z,1.90
2023-05-18T05:17:50.093Z,2.93
2023-05-18T05:20:18.379Z,2.00
2023-05-18T05:22:46.109Z,2.17
2023-05-18T05:25:13.978Z,2.00
2023-05-18T05:27:43.108Z,2.90
2023-05-18T05:30:11.484Z,2.10
2023-05-18T05:32:40.368Z,2.03
2023-05-18T05:35:08.610Z,2.03
2023-05-18T05:37:36.505Z,1.90
2023-05-18T05:40:06.182Z,3.30
2023-05-18T05:42:35.179Z,2.80
2023-05-18T05:45:04.634Z,1.53
2023-05-18T05:47:32.413Z,2.10
2023-05-18T05:50:00.719Z,1.70
2023-05-18T05:52:30.287Z,1.83
2023-05-18T05:54:58.045Z,1.70
2023-05-18T05:57:26.407Z,2.13
2023-05-18T05:59:54.183Z,2.03
2023-05-18T06:02:23.441Z,1.70
2023-05-18T06:04:51.180Z,1.93
2023-05-18T06:07:18.892Z,1.37
2023-05-18T06:09:46.784Z,1.40
2023-05-18T06:12:14.995Z,1.77
2023-05-18T06:14:43.124Z,1.50
2023-05-18T06:17:11.151Z,1.57
2023-05-18T06:19:40.310Z,1.33
2023-05-18T06:22:08.146Z,1.30
2023-05-18T06:24:36.262Z,1.70
2023-05-18T06:27:04.196Z,1.50
2023-05-18T06:29:31.890Z,1.30
2023-05-18T06:31:59.764Z,1.20
2023-05-18T06:34:27.586Z,1.50
2023-05-18T06:36:56.964Z,1.10
2023-05-18T06:39:24.898Z,1.30
2023-05-18T06:41:52.799Z,1.10
2023-05-18T06:44:20.534Z,1.23
2023-05-18T06:46:49.179Z,1.23
2023-05-18T06:49:16.892Z,1.70
2023-05-18T06:51:45.811Z,1.40
2023-05-18T06:54:15.256Z,1.53
2023-05-18T06:56:43.565Z,1.10
2023-05-18T06:59:11.338Z,1.10
2023-05-18T07:01:39.278Z,1.33
2023-05-18T07:04:07.781Z,1.20
2023-05-18T07:06:36.622Z,1.60
2023-05-18T07:09:05.720Z,1.20
2023-05-18T07:11:34.913Z,1.10
2023-05-18T07:14:02.856Z,1.30
2023-05-18T07:16:31.344Z,1.20
2023-05-18T07:18:59.747Z,0.90
2023-05-18T07:21:27.518Z,1.47
2023-05-18T07:23:55.776Z,1.10
2023-05-18T07:26:23.956Z,1.20
2023-05-18T07:28:53.410Z,1.30
2023-05-18T07:31:22.223Z,1.00
2023-05-18T07:33:50.296Z,1.30
2023-05-18T07:36:18.362Z,1.38
2023-05-18T07:38:46.170Z,1.20
2023-05-18T07:41:14.326Z,1.08
2023-05-18T07:43:42.103Z,1.00
2023-05-18T07:46:11.278Z,1.23
2023-05-18T07:48:40.765Z,1.20
2023-05-18T07:51:09.358Z,1.10
2023-05-18T07:53:38.072Z,1.15
2023-05-18T07:56:07.030Z,1.13
2023-05-18T07:58:35.280Z,0.95
2023-05-18T08:01:03.689Z,1.10
2023-05-18T08:03:32.965Z,1.40
2023-05-18T08:06:01.101Z,1.10
2023-05-18T08:08:28.939Z,1.10
2023-05-18T08:10:56.862Z,0.95
2023-05-18T08:13:24.816Z,1.00
2023-05-18T08:16:03.028Z,1.10
2023-05-18T08:18:40.646Z,1.00
2023-05-18T08:21:10.082Z,1.13
2023-05-18T08:23:38.462Z,1.23
2023-05-18T08:26:08.454Z,1.20
2023-05-18T08:28:36.491Z,1.13
2023-05-18T08:31:04.551Z,0.98
2023-05-18T08:33:33.406Z,1.00
2023-05-18T08:36:02.999Z,0.90
2023-05-18T08:38:32.014Z,1.10
2023-05-18T08:41:09.484Z,1.20
2023-05-18T08:43:43.870Z,1.00
2023-05-18T08:46:21.182Z,1.10
2023-05-18T08:48:53.163Z,1.00
2023-05-18T08:51:24.437Z,1.08
2023-05-18T08:53:56.616Z,1.20
2023-05-18T08:56:26.646Z,1.20
2023-05-18T08:58:57.925Z,1.20
2023-05-18T09:01:29.610Z,1.05
2023-05-18T09:03:59.881Z,1.17
2023-05-18T09:06:32.612Z,1.00
2023-05-18T09:09:04.879Z,1.08
2023-05-18T09:11:36.357Z,1.25
2023-05-18T09:14:14.179Z,1.65
2023-05-18T09:16:49.501Z,0.95
2023-05-18T09:19:17.963Z,0.93
2023-05-18T09:21:52.537Z,1.40
2023-05-18T09:24:25.053Z,1.17
2023-05-18T09:26:56.770Z,1.05
2023-05-18T09:29:26.991Z,0.90
2023-05-18T09:32:03.452Z,1.13
2023-05-18T09:34:42.091Z,1.35
2023-05-18T09:37:11.908Z,1.08
2023-05-18T09:39:40.663Z,1.10
2023-05-18T09:42:10.548Z,1.02
2023-05-18T09:44:38.403Z,1.17
2023-05-18T09:47:13.955Z,1.25
2023-05-18T09:49:45.218Z,0.80
2023-05-18T09:52:18.704Z,0.90
2023-05-18T09:54:59.207Z,1.27
2023-05-18T09:57:29.887Z,1.10
2023-05-18T10:00:01.032Z,1.10
2023-05-18T10:02:29.127Z,1.05
2023-05-18T10:04:57.552Z,1.08
2023-05-18T10:07:26.634Z,1.02
2023-05-18T10:10:05.425Z,1.20
2023-05-18T10:12:35.223Z,1.00
2023-05-18T10:15:02.952Z,1.17
2023-05-18T10:17:34.980Z,1.10
2023-05-18T10:20:04.775Z,0.95
2023-05-18T10:22:36.810Z,1.20
2023-05-18T10:25:07.083Z,1.53
2023-05-18T10:27:37.205Z,1.10
2023-05-18T10:30:09.716Z,1.10
2023-05-18T10:32:40.204Z,0.95
2023-05-18T10:35:10.116Z,1.17
2023-05-18T10:37:41.570Z,0.90
2023-05-18T10:40:12.555Z,1.20
2023-05-18T10:42:42.783Z,1.20
2023-05-18T10:45:14.066Z,1.23
2023-05-18T10:47:46.996Z,1.30
2023-05-18T10:50:18.440Z,0.80
2023-05-18T10:52:49.602Z,1.10
2023-05-18T10:55:21.180Z,1.10
2023-05-18T10:57:53.868Z,1.50
2023-05-18T11:00:22.447Z,2.83
2023-05-18T11:02:51.993Z,0.90
2023-05-18T11:05:25.851Z,1.38
2023-05-18T11:08:03.557Z,1.42
2023-05-18T11:10:36.174Z,1.20
2023-05-18T11:13:07.171Z,1.05
2023-05-18T11:16:08.673Z,1.20
2023-05-18T11:18:45.423Z,1.10
2023-05-18T11:21:21.638Z,1.10
2023-05-18T11:24:17.326Z,0.90
2023-05-18T11:26:47.180Z,0.90
2023-05-18T11:29:19.898Z,0.95
2023-05-18T11:31:49.020Z,0.98
2023-05-18T11:34:39.427Z,1.13
2023-05-18T11:37:10.093Z,0.98
2023-05-18T11:39:47.888Z,1.17
2023-05-18T11:42:24.416Z,1.10
2023-05-18T11:44:59.497Z,1.00
2023-05-18T11:47:33.431Z,0.77
2023-05-18T11:50:07.449Z,1.10
2023-05-18T11:52:45.951Z,1.02
2023-05-18T11:55:18.482Z,1.42
2023-05-18T11:57:50.054Z,0.85
2023-05-18T12:00:18.669Z,0.80
2023-05-18T12:02:52.143Z,0.90
2023-05-18T12:05:22.771Z,0.93
2023-05-18T12:08:02.228Z,1.00
2023-05-18T12:10:33.067Z,0.90
2023-05-18T12:13:02.758Z,0.85
2023-05-18T12:15:35.021Z,1.00
2023-05-18T12:18:30.939Z,0.80
2023-05-18T12:21:04.706Z,0.90
2023-05-18T12:23:39.549Z,0.90
2023-05-18T12:26:11.533Z,1.05
2023-05-18T12:28:43.053Z,1.00
2023-05-18T12:31:14.410Z,1.10
2023-05-18T12:33:45.352Z,0.90
2023-05-18T12:36:14.106Z,1.23
2023-05-18T12:38:42.599Z,1.00
2023-05-18T12:41:12.060Z,1.00
2023-05-18T12:43:41.622Z,1.10
2023-05-18T12:46:12.056Z,0.70
2023-05-18T12:48:49.987Z,1.10
2023-05-18T12:51:22.627Z,1.17
2023-05-18T12:53:51.498Z,0.90
2023-05-18T12:56:21.516Z,0.97
2023-05-18T12:58:57.948Z,0.90
2023-05-18T13:01:26.661Z,1.23
2023-05-18T13:04:00.581Z,1.00
2023-05-18T13:06:30.075Z,0.90
2023-05-18T13:08:58.157Z,1.03
2023-05-18T13:11:30.547Z,0.90
2023-05-18T13:13:59.230Z,0.70
2023-05-18T13:16:30.343Z,0.70
2023-05-18T13:19:01.794Z,0.90
2023-05-18T13:21:31.106Z,1.00
2023-05-18T13:23:59.322Z,0.77
2023-05-18T13:26:28.988Z,0.80
2023-05-18T13:28:58.161Z,1.13
2023-05-18T13:31:26.301Z,0.80
2023-05-18T13:33:55.169Z,0.80
2023-05-18T13:36:23.174Z,0.90
2023-05-18T13:38:53.430Z,1.03
2023-05-18T13:41:21.660Z,0.80
2023-05-18T13:43:51.062Z,0.97
2023-05-18T13:46:20.035Z,0.90
2023-05-18T13:48:47.896Z,1.03
2023-05-18T13:51:16.279Z,0.90
2023-05-18T13:53:45.824Z,1.00
2023-05-18T13:56:18.343Z,0.80
2023-05-18T13:58:47.367Z,1.20
2023-05-18T14:01:18.016Z,1.07
2023-05-18T14:03:46.810Z,1.10
2023-05-18T14:06:14.881Z,1.40
2023-05-18T14:08:43.530Z,1.07
2023-05-18T14:11:11.417Z,1.03
2023-05-18T14:13:39.617Z,0.80
2023-05-18T14:16:12.311Z,1.00
2023-05-18T14:18:41.802Z,0.93
2023-05-18T14:21:10.977Z,1.10
2023-05-18T14:23:39.606Z,1.00
2023-05-18T14:26:07.836Z,1.00
2023-05-18T14:28:35.852Z,1.07
2023-05-18T14:31:03.653Z,1.00
2023-05-18T14:33:32.616Z,0.90
2023-05-18T14:36:02.020Z,0.80
2023-05-18T14:38:30.015Z,0.90
2023-05-18T14:40:58.087Z,0.93
2023-05-18T14:43:26.744Z,0.80
2023-05-18T14:46:08.162Z,1.00
2023-05-18T14:48:36.927Z,0.87
2023-05-18T14:51:06.418Z,0.80
2023-05-18T14:53:34.337Z,0.87
2023-05-18T14:56:06.145Z,0.87
2023-05-18T14:58:34.290Z,0.93
2023-05-18T15:01:03.547Z,0.90
2023-05-18T15:03:31.428Z,1.10
2023-05-18T15:06:04.354Z,1.00
2023-05-18T15:08:33.986Z,0.90
2023-05-18T15:11:16.328Z,1.00
2023-05-18T15:13:44.496Z,1.03
2023-05-18T15:16:12.998Z,1.40
2023-05-18T15:18:43.384Z,1.10
2023-05-18T15:21:18.787Z,0.90
2023-05-18T15:23:47.925Z,1.10
2023-05-18T15:26:16.145Z,0.90
2023-05-18T15:28:45.198Z,1.10
2023-05-18T15:31:23.904Z,0.97
2023-05-18T15:33:51.859Z,0.90
2023-05-18T15:36:21.508Z,1.30
2023-05-18T15:38:52.840Z,0.80
2023-05-18T15:41:22.191Z,1.10
2023-05-18T15:43:54.007Z,1.53
2023-05-18T15:46:22.030Z,1.20
2023-05-18T15:48:51.345Z,1.00
2023-05-18T15:51:19.867Z,0.90
2023-05-18T15:53:47.956Z,0.90
2023-05-18T15:56:18.366Z,1.13
2023-05-18T15:58:46.340Z,1.20
2023-05-18T16:01:14.284Z,3.47
2023-05-18T16:03:43.088Z,1.77
2023-05-18T16:06:11.651Z,1.10
2023-05-18T16:08:39.584Z,0.80
2023-05-18T16:11:08.132Z,0.90
2023-05-18T16:13:38.587Z,0.70
2023-05-18T16:16:14.104Z,0.80
2023-05-18T16:18:42.395Z,0.80
2023-05-18T16:21:11.608Z,0.73
2023-05-18T16:23:42.780Z,1.10
2023-05-18T16:26:12.682Z,0.80
2023-05-18T16:28:46.524Z,0.70
2023-05-18T16:31:18.511Z,0.80
2023-05-18T16:33:48.571Z,0.90
2023-05-18T16:36:18.057Z,0.90
2023-05-18T16:38:46.062Z,0.80
2023-05-18T16:41:14.829Z,0.70
2023-05-18T16:43:44.782Z,0.80
2023-05-18T16:46:13.912Z,0.60
2023-05-18T16:48:42.134Z,0.70
2023-05-18T16:51:11.382Z,1.00
2023-05-18T16:53:40.099Z,0.70
2023-05-18T16:56:09.515Z,1.00
2023-05-18T16:58:37.697Z,1.20
2023-05-18T17:01:19.467Z,0.80
2023-05-18T17:03:55.184Z,0.93
2023-05-18T17:06:23.183Z,0.90
2023-05-18T17:08:57.348Z,0.80
2023-05-18T17:11:27.115Z,0.80
2023-05-18T17:13:59.957Z,0.93
2023-05-18T17:16:30.248Z,1.03
2023-05-18T17:18:58.356Z,0.90
2023-05-18T17:21:28.555Z,0.80
2023-05-18T17:23:59.865Z,0.87
2023-05-18T17:26:30.797Z,1.00
2023-05-18T17:28:59.827Z,1.20
2023-05-18T17:31:30.444Z,1.20
2023-05-18T17:33:58.491Z,0.77
2023-05-18T17:36:27.158Z,0.83
2023-05-18T17:38:56.158Z,1.00
2023-05-18T17:41:25.853Z,1.10
2023-05-18T17:43:54.864Z,1.10
2023-05-18T17:46:25.373Z,1.10
2023-05-18T17:48:54.715Z,0.90
2023-05-18T17:51:25.331Z,1.20
2023-05-18T17:53:53.682Z,0.90
2023-05-18T17:56:22.153Z,0.93
2023-05-18T17:58:50.289Z,1.00
2023-05-18T18:01:18.104Z,1.10
2023-05-18T18:03:46.662Z,1.00
2023-05-18T18:06:17.855Z,1.10
2023-05-18T18:08:48.029Z,1.03
2023-05-18T18:11:15.829Z,1.30
2023-05-18T18:13:43.726Z,0.90
2023-05-18T18:16:11.795Z,1.00
2023-05-18T18:18:40.198Z,0.90
2023-05-18T18:21:09.674Z,1.00
2023-05-18T18:23:40.173Z,1.10
2023-05-18T18:26:10.253Z,0.90
2023-05-18T18:28:38.185Z,1.20
2023-05-18T18:31:06.136Z,1.00
2023-05-18T18:33:34.113Z,0.87
2023-05-18T18:36:04.430Z,1.10
2023-05-18T18:38:34.141Z,0.87
2023-05-18T18:41:05.345Z,1.10
2023-05-18T18:43:35.187Z,1.17
2023-05-18T18:46:04.604Z,1.00
2023-05-18T18:48:36.005Z,1.00
2023-05-18T18:51:05.447Z,1.00
2023-05-18T18:53:33.643Z,0.87
2023-05-18T18:56:03.503Z,1.07
2023-05-18T18:58:34.640Z,0.87
2023-05-18T19:01:02.402Z,0.80
2023-05-18T19:03:33.021Z,1.50
2023-05-18T19:06:02.617Z,0.93
2023-05-18T19:08:33.044Z,1.43
2023-05-18T19:11:01.371Z,0.93
2023-05-18T19:13:32.556Z,0.90
2023-05-18T19:16:01.009Z,1.30
2023-05-18T19:18:30.125Z,1.13
2023-05-18T19:21:01.145Z,1.10
2023-05-18T19:23:30.739Z,1.10
2023-05-18T19:26:05.069Z,1.20
2023-05-18T19:28:36.797Z,0.90
2023-05-18T19:31:08.598Z,1.07
2023-05-18T19:33:43.797Z,1.13
2023-05-18T19:36:14.604Z,1.20
2023-05-18T19:38:44.020Z,1.30
2023-05-18T19:41:15.058Z,1.13
2023-05-18T19:43:44.443Z,1.23
2023-05-18T19:46:17.323Z,1.43
2023-05-18T19:48:49.312Z,1.30
2023-05-18T19:51:20.529Z,1.97
2023-05-18T19:53:51.099Z,1.87
2023-05-18T19:56:21.883Z,1.27
2023-05-18T19:58:54.714Z,1.67
2023-05-18T20:01:28.897Z,1.33
2023-05-18T20:04:00.988Z,1.00
2023-05-18T20:06:31.862Z,1.40
2023-05-18T20:09:09.124Z,1.47
2023-05-18T20:11:39.776Z,1.07
2023-05-18T20:14:11.568Z,1.23
2023-05-18T20:16:41.049Z,1.30
2023-05-18T20:19:10.047Z,1.20
2023-05-18T20:21:45.194Z,1.40
2023-05-18T20:24:14.864Z,0.90
2023-05-18T20:26:45.679Z,1.20
2023-05-18T20:29:17.660Z,1.40
2023-05-18T20:31:49.720Z,1.23
2023-05-18T20:34:19.412Z,1.37
2023-05-18T20:36:52.541Z,1.20
2023-05-18T20:39:23.298Z,1.27
2023-05-18T20:41:53.968Z,1.23
2023-05-18T20:44:31.211Z,1.37
2023-05-18T20:47:01.297Z,1.30
2023-05-18T20:49:29.456Z,1.00
2023-05-18T20:52:09.872Z,1.43
2023-05-18T20:54:39.127Z,1.10
2023-05-18T20:57:08.757Z,1.30
2023-05-18T20:59:38.006Z,1.10
2023-05-18T21:02:09.021Z,1.33
2023-05-18T21:04:40.759Z,1.07
2023-05-18T21:07:11.848Z,1.43
2023-05-18T21:09:40.419Z,1.00
2023-05-18T21:12:09.803Z,1.20
2023-05-18T21:14:42.238Z,1.20
2023-05-18T21:17:17.687Z,1.13
2023-05-18T21:19:50.357Z,1.10
2023-05-18T21:22:20.373Z,1.50
2023-05-18T21:24:51.139Z,1.10
2023-05-18T21:27:21.362Z,1.10
2023-05-18T21:29:53.615Z,1.20
2023-05-18T21:32:22.281Z,1.53
2023-05-18T21:34:50.768Z,0.90
2023-05-18T21:37:30.172Z,1.40
2023-05-18T21:39:58.872Z,1.20
2023-05-18T21:42:35.266Z,1.10
2023-05-18T21:45:08.057Z,1.30
2023-05-18T21:47:38.204Z,1.10
2023-05-18T21:50:09.290Z,1.20
2023-05-18T21:52:37.684Z,1.20
2023-05-18T21:55:09.574Z,1.30
2023-05-18T21:57:38.416Z,1.20
2023-05-18T22:00:13.066Z,1.37
2023-05-18T22:02:42.838Z,1.30
2023-05-18T22:05:12.760Z,1.07
2023-05-18T22:07:41.144Z,1.20
2023-05-18T22:10:13.837Z,1.20
2023-05-18T22:12:49.188Z,1.00
2023-05-18T22:15:24.405Z,1.37
2023-05-18T22:17:54.253Z,1.10
2023-05-18T22:20:23.904Z,1.30
2023-05-18T22:22:54.394Z,1.00
2023-05-18T22:25:24.885Z,1.20
2023-05-18T22:27:54.489Z,1.00
2023-05-18T22:30:27.673Z,1.10
2023-05-18T22:32:58.788Z,1.00
2023-05-18T22:35:28.415Z,1.00
2023-05-18T22:38:00.766Z,1.10
2023-05-18T22:40:28.774Z,1.03
2023-05-18T22:42:58.776Z,1.17
2023-05-18T22:45:30.228Z,1.00
2023-05-18T22:47:59.029Z,1.10
2023-05-18T22:50:36.399Z,1.07
2023-05-18T22:53:10.219Z,1.03
2023-05-18T22:55:38.771Z,1.00
2023-05-18T22:58:08.118Z,1.10
2023-05-18T23:00:38.725Z,1.10
2023-05-18T23:03:09.334Z,1.13
2023-05-18T23:05:41.410Z,1.43
2023-05-18T23:08:19.367Z,1.17
2023-05-18T23:10:50.697Z,1.30
2023-05-18T23:13:20.082Z,0.90
2023-05-18T23:16:00.178Z,1.17
2023-05-18T23:18:31.993Z,1.10
2023-05-18T23:21:02.858Z,1.20
2023-05-18T23:23:34.748Z,1.10
2023-05-18T23:26:06.304Z,1.10
2023-05-18T23:28:36.609Z,1.10
2023-05-18T23:31:06.934Z,1.10
2023-05-18T23:33:46.878Z,1.30
2023-05-18T23:36:19.629Z,1.17
2023-05-18T23:38:50.153Z,1.40
2023-05-18T23:41:19.885Z,1.20
2023-05-18T23:43:48.118Z,0.90
2023-05-18T23:46:24.911Z,1.30
2023-05-18T23:48:54.843Z,1.23
2023-05-18T23:51:25.909Z,0.87
2023-05-18T23:53:58.136Z,0.90
2023-05-18T23:56:33.273Z,1.00
2023-05-18T23:59:03.668Z,0.90
